createdAt,value
2023-04-16T00:01:18.302Z,6.35
2023-04-16T00:03:46.326Z,6.33
2023-04-16T00:06:14.445Z,6.34
2023-04-16T00:08:43.582Z,6.36
2023-04-16T00:11:11.378Z,6.32
2023-04-16T00:13:39.105Z,6.31
2023-04-16T00:16:09.050Z,6.31
2023-04-16T00:18:36.876Z,6.31
2023-04-16T00:21:04.953Z,6.30
2023-04-16T00:23:32.711Z,6.29
2023-04-16T00:26:00.843Z,6.28
2023-04-16T00:28:28.735Z,6.21
2023-04-16T00:30:56.800Z,6.26
2023-04-16T00:33:25.969Z,6.26
2023-04-16T00:35:53.819Z,6.25
2023-04-16T00:38:21.597Z,6.22
2023-04-16T00:40:49.359Z,6.20
2023-04-16T00:43:22.686Z,6.20
2023-04-16T00:45:50.507Z,6.20
2023-04-16T00:48:18.336Z,6.18
2023-04-16T00:50:47.504Z,6.19
2023-04-16T00:53:15.501Z,6.21
2023-04-16T00:55:43.838Z,6.19
2023-04-16T00:58:11.682Z,6.19
2023-04-16T01:00:39.432Z,6.20
2023-04-16T01:03:07.333Z,6.23
2023-04-16T01:05:35.332Z,6.20
2023-04-16T01:08:04.571Z,6.17
2023-04-16T01:10:32.304Z,6.16
2023-04-16T01:13:00.135Z,6.18
2023-04-16T01:15:27.868Z,6.20
2023-04-16T01:17:55.746Z,6.20
2023-04-16T01:20:23.679Z,6.20
2023-04-16T01:22:52.853Z,6.14
2023-04-16T01:25:20.598Z,6.16
2023-04-16T01:27:50.679Z,6.16
2023-04-16T01:30:19.706Z,6.16
2023-04-16T01:32:48.363Z,6.15
2023-04-16T01:35:18.106Z,6.14
2023-04-16T01:37:46.010Z,6.06
2023-04-16T01:40:15.511Z,6.12
2023-04-16T01:42:43.287Z,6.13
2023-04-16T01:45:11.689Z,6.13
2023-04-16T01:47:39.586Z,6.08
2023-04-16T01:50:08.507Z,6.04
2023-04-16T01:52:37.061Z,6.08
2023-04-16T01:55:05.235Z,6.08
2023-04-16T01:57:34.343Z,6.10
2023-04-16T02:00:02.161Z,6.08
2023-04-16T02:02:30.952Z,6.06
2023-04-16T02:04:58.759Z,6.04
2023-04-16T02:07:27.474Z,6.03
2023-04-16T02:09:55.345Z,6.04
2023-04-16T02:12:23.097Z,6.05
2023-04-16T02:14:52.271Z,6.03
2023-04-16T02:17:20.093Z,5.82
2023-04-16T02:19:48.335Z,6.04
2023-04-16T02:22:16.119Z,6.04
2023-04-16T02:24:43.871Z,6.03
2023-04-16T02:27:11.628Z,6.05
2023-04-16T02:29:39.422Z,6.04
2023-04-16T02:32:08.787Z,6.01
2023-04-16T02:34:36.633Z,6.03
2023-04-16T02:37:04.444Z,6.03
2023-04-16T02:39:32.313Z,6.05
2023-04-16T02:42:01.538Z,6.05
2023-04-16T02:44:29.276Z,6.06
2023-04-16T02:46:57.016Z,6.08
2023-04-16T02:49:26.108Z,6.06
2023-04-16T02:51:53.929Z,6.07
2023-04-16T02:54:21.695Z,6.06
2023-04-16T02:56:49.494Z,6.06
2023-04-16T02:59:17.267Z,6.05
2023-04-16T03:01:45.149Z,6.05
2023-04-16T03:04:13.054Z,6.04
2023-04-16T03:06:42.275Z,6.04
2023-04-16T03:09:10.291Z,6.01
2023-04-16T03:11:38.339Z,6.03
2023-04-16T03:14:06.310Z,6.02
2023-04-16T03:16:34.093Z,6.01
2023-04-16T03:19:01.942Z,6.00
2023-04-16T03:21:29.822Z,5.98
2023-04-16T03:23:58.963Z,6.01
2023-04-16T03:26:27.134Z,5.99
2023-04-16T03:28:54.904Z,5.94
2023-04-16T03:31:25.434Z,5.98
2023-04-16T03:33:53.275Z,5.98
2023-04-16T03:36:21.138Z,5.99
2023-04-16T03:38:48.954Z,6.01
2023-04-16T03:41:18.055Z,6.05
2023-04-16T03:43:45.920Z,6.07
2023-04-16T03:46:13.710Z,6.08
2023-04-16T03:48:41.561Z,6.07
2023-04-16T03:51:09.384Z,6.10
2023-04-16T03:53:37.190Z,6.10
2023-04-16T03:56:05.417Z,6.06
2023-04-16T03:58:34.573Z,6.07
2023-04-16T04:01:02.334Z,5.91
2023-04-16T04:03:30.360Z,6.13
2023-04-16T04:05:58.343Z,6.15
2023-04-16T04:08:26.242Z,6.16
2023-04-16T04:10:54.035Z,6.16
2023-04-16T04:13:21.830Z,6.21
2023-04-16T04:15:50.977Z,6.23
2023-04-16T04:18:18.793Z,6.21
2023-04-16T04:20:46.584Z,6.22
2023-04-16T04:23:14.379Z,6.23
2023-04-16T04:25:42.107Z,6.26
2023-04-16T04:28:09.951Z,6.28
2023-04-16T04:30:37.724Z,6.27
2023-04-16T04:33:07.077Z,6.26
2023-04-16T04:35:35.182Z,6.27
2023-04-16T04:38:03.800Z,6.28
2023-04-16T04:40:31.566Z,6.26
2023-04-16T04:42:59.339Z,6.26
2023-04-16T04:45:27.958Z,6.30
2023-04-16T04:47:56.901Z,6.32
2023-04-16T04:50:26.114Z,6.31
2023-04-16T04:52:53.893Z,6.31
2023-04-16T04:55:21.877Z,6.29
2023-04-16T04:57:49.972Z,6.31
2023-04-16T05:00:17.815Z,6.32
2023-04-16T05:02:45.955Z,6.33
2023-04-16T05:05:13.813Z,6.38
2023-04-16T05:07:42.994Z,6.36
2023-04-16T05:10:11.142Z,6.37
2023-04-16T05:12:40.284Z,6.40
2023-04-16T05:15:09.198Z,6.40
2023-04-16T05:17:37.048Z,6.43
2023-04-16T05:20:05.505Z,6.43
2023-04-16T05:22:34.094Z,6.41
2023-04-16T05:25:03.367Z,6.39
2023-04-16T05:27:31.254Z,6.36
2023-04-16T05:29:59.017Z,6.35
2023-04-16T05:32:27.730Z,6.36
2023-04-16T05:34:55.671Z,6.32
2023-04-16T05:37:23.458Z,6.30
2023-04-16T05:39:51.262Z,6.33
2023-04-16T05:42:20.482Z,6.37
2023-04-16T05:44:48.291Z,6.29
2023-04-16T05:47:16.278Z,6.26
2023-04-16T05:49:44.192Z,6.27
2023-04-16T05:52:11.963Z,6.29
2023-04-16T05:54:39.728Z,6.23
2023-04-16T05:57:07.507Z,6.25
2023-04-16T05:59:36.684Z,6.26
2023-04-16T06:02:04.540Z,6.27
2023-04-16T06:04:32.340Z,6.29
2023-04-16T06:07:00.107Z,6.28
2023-04-16T06:09:28.306Z,6.30
2023-04-16T06:11:56.519Z,6.29
2023-04-16T06:14:24.305Z,6.28
2023-04-16T06:16:53.442Z,6.24
2023-04-16T06:19:21.403Z,6.26
2023-04-16T06:21:49.163Z,6.26
2023-04-16T06:24:18.477Z,6.24
2023-04-16T06:26:46.259Z,6.23
2023-04-16T06:29:14.136Z,6.23
2023-04-16T06:31:41.929Z,6.27
2023-04-16T06:34:11.151Z,6.34
2023-04-16T06:36:39.050Z,6.33
2023-04-16T06:39:06.920Z,6.37
2023-04-16T06:41:34.715Z,6.38
2023-04-16T06:44:02.496Z,6.33
2023-04-16T06:46:30.445Z,6.36
2023-04-16T06:48:58.220Z,6.39
2023-04-16T06:51:27.431Z,6.42
2023-04-16T06:53:55.253Z,6.43
2023-04-16T06:56:23.107Z,6.48
2023-04-16T06:58:51.465Z,6.51
2023-04-16T07:01:19.794Z,6.53
2023-04-16T07:03:47.921Z,6.55
2023-04-16T07:06:15.879Z,6.55
2023-04-16T07:08:45.074Z,6.55
2023-04-16T07:11:12.889Z,6.59
2023-04-16T07:13:40.650Z,6.64
2023-04-16T07:16:08.791Z,6.66
2023-04-16T07:18:36.622Z,6.65
2023-04-16T07:21:05.070Z,6.67
2023-04-16T07:23:32.945Z,6.68
2023-04-16T07:26:02.096Z,6.69
2023-04-16T07:28:29.873Z,6.75
2023-04-16T07:30:57.708Z,6.82
2023-04-16T07:33:26.111Z,6.86
2023-04-16T07:35:53.916Z,6.77
2023-04-16T07:38:21.715Z,6.77
2023-04-16T07:40:49.487Z,6.77
2023-04-16T07:43:18.644Z,6.80
2023-04-16T07:45:46.484Z,6.83
2023-04-16T07:48:14.278Z,6.83
2023-04-16T07:50:43.644Z,6.81
2023-04-16T07:53:11.485Z,6.80
2023-04-16T07:55:39.239Z,6.60
2023-04-16T07:58:09.450Z,6.99
2023-04-16T08:00:39.492Z,6.92
2023-04-16T08:03:07.484Z,6.93
2023-04-16T08:05:35.378Z,6.87
2023-04-16T08:08:03.293Z,6.86
2023-04-16T08:10:31.098Z,6.84
2023-04-16T08:12:58.847Z,6.84
2023-04-16T08:15:26.722Z,6.86
2023-04-16T08:17:55.875Z,6.86
2023-04-16T08:20:23.720Z,6.82
2023-04-16T08:22:51.541Z,6.84
2023-04-16T08:25:20.258Z,6.84
2023-04-16T08:27:48.014Z,6.85
2023-04-16T08:30:16.748Z,6.88
2023-04-16T08:32:44.722Z,7.00
2023-04-16T08:35:14.014Z,7.07
2023-04-16T08:37:41.805Z,7.05
2023-04-16T08:40:10.581Z,7.01
2023-04-16T08:42:42.163Z,6.98
2023-04-16T08:45:15.571Z,6.87
2023-04-16T08:47:47.247Z,6.91
2023-04-16T08:50:17.444Z,6.94
2023-04-16T08:52:48.176Z,6.90
2023-04-16T08:55:17.710Z,6.92
2023-04-16T08:57:49.182Z,6.82
2023-04-16T09:00:17.627Z,6.90
2023-04-16T09:02:45.560Z,6.93
2023-04-16T09:05:18.988Z,6.96
2023-04-16T09:07:47.391Z,6.99
2023-04-16T09:10:16.088Z,6.99
2023-04-16T09:12:44.470Z,6.98
2023-04-16T09:15:13.305Z,6.98
2023-04-16T09:17:41.429Z,7.05
2023-04-16T09:20:11.086Z,7.11
2023-04-16T09:22:41.164Z,7.20
2023-04-16T09:25:09.743Z,7.25
2023-04-16T09:27:37.808Z,7.28
2023-04-16T09:30:21.759Z,7.34
2023-04-16T09:32:49.811Z,7.35
2023-04-16T09:35:19.077Z,7.35
2023-04-16T09:37:57.805Z,7.39
2023-04-16T09:40:26.201Z,7.40
2023-04-16T09:42:56.110Z,7.47
2023-04-16T09:45:24.489Z,7.46
2023-04-16T09:47:52.437Z,7.47
2023-04-16T09:50:21.315Z,7.41
2023-04-16T09:52:51.648Z,7.42
2023-04-16T09:55:24.216Z,7.43
2023-04-16T09:57:59.975Z,7.40
2023-04-16T10:00:27.844Z,7.43
2023-04-16T10:03:04.984Z,7.45
2023-04-16T10:05:32.875Z,7.49
2023-04-16T10:08:02.720Z,7.51
2023-04-16T10:10:31.022Z,7.53
2023-04-16T10:12:59.221Z,7.57
2023-04-16T10:15:27.186Z,7.64
2023-04-16T10:17:55.323Z,7.66
2023-04-16T10:20:24.099Z,7.69
2023-04-16T10:22:52.039Z,7.60
2023-04-16T10:25:21.621Z,7.70
2023-04-16T10:27:49.383Z,7.77
2023-04-16T10:30:18.739Z,7.71
2023-04-16T10:32:46.997Z,7.78
2023-04-16T10:35:17.459Z,7.78
2023-04-16T10:37:45.404Z,7.78
2023-04-16T10:40:28.159Z,7.72
2023-04-16T10:42:57.371Z,7.68
2023-04-16T10:45:31.541Z,7.75
2023-04-16T10:47:59.571Z,7.76
2023-04-16T10:50:35.774Z,7.81
2023-04-16T10:53:25.393Z,7.84
2023-04-16T10:56:12.973Z,7.82
2023-04-16T10:58:40.842Z,7.85
2023-04-16T11:01:13.251Z,7.92
2023-04-16T11:03:45.661Z,7.97
2023-04-16T11:06:17.869Z,7.98
2023-04-16T11:08:54.586Z,7.98
2023-04-16T11:11:24.706Z,7.97
2023-04-16T11:13:56.848Z,8.08
2023-04-16T11:16:26.030Z,8.15
2023-04-16T11:18:56.245Z,8.25
2023-04-16T11:21:25.266Z,8.38
2023-04-16T11:23:54.567Z,8.41
2023-04-16T11:26:28.021Z,8.38
2023-04-16T11:28:57.154Z,8.44
2023-04-16T11:31:27.246Z,8.48
2023-04-16T11:33:57.138Z,8.45
2023-04-16T11:36:26.941Z,8.41
2023-04-16T11:39:02.623Z,8.49
2023-04-16T11:41:31.781Z,8.62
2023-04-16T11:43:59.547Z,8.70
2023-04-16T11:46:39.340Z,8.82
2023-04-16T11:49:07.390Z,8.86
2023-04-16T11:51:40.955Z,8.88
2023-04-16T11:54:11.831Z,8.97
2023-04-16T11:56:47.716Z,8.99
2023-04-16T11:59:17.707Z,9.02
2023-04-16T12:01:48.243Z,9.08
2023-04-16T12:04:17.090Z,9.05
2023-04-16T12:07:06.731Z,9.13
2023-04-16T12:09:37.901Z,9.19
2023-04-16T12:12:26.419Z,9.31
2023-04-16T12:14:54.510Z,9.21
2023-04-16T12:17:22.768Z,9.48
2023-04-16T12:19:52.311Z,9.54
2023-04-16T12:22:28.514Z,9.60
2023-04-16T12:25:04.152Z,9.57
2023-04-16T12:27:47.955Z,9.63
2023-04-16T12:30:17.291Z,9.70
2023-04-16T12:32:47.294Z,9.68
2023-04-16T12:35:15.542Z,9.71
2023-04-16T12:37:43.370Z,9.74
2023-04-16T12:40:12.184Z,9.86
2023-04-16T12:42:39.964Z,9.97
2023-04-16T12:45:09.598Z,10.05
2023-04-16T12:47:37.493Z,10.20
2023-04-16T12:50:05.846Z,10.36
2023-04-16T12:52:33.712Z,10.51
2023-04-16T12:55:02.757Z,10.52
2023-04-16T12:57:30.531Z,10.45
2023-04-16T12:59:59.239Z,10.41
2023-04-16T13:02:28.662Z,10.45
2023-04-16T13:04:56.548Z,10.42
2023-04-16T13:07:26.683Z,10.39
2023-04-16T13:09:54.460Z,10.46
2023-04-16T13:12:22.311Z,10.61
2023-04-16T13:14:50.082Z,10.70
2023-04-16T13:17:17.923Z,10.68
2023-04-16T13:19:47.294Z,10.79
2023-04-16T13:22:15.135Z,10.93
2023-04-16T13:24:42.961Z,10.85
2023-04-16T13:27:11.477Z,10.91
2023-04-16T13:29:39.302Z,11.04
2023-04-16T13:32:07.513Z,10.98
2023-04-16T13:34:35.863Z,10.97
2023-04-16T13:37:05.030Z,10.71
2023-04-16T13:39:32.844Z,10.92
2023-04-16T13:42:00.681Z,10.90
2023-04-16T13:44:28.476Z,10.93
2023-04-16T13:46:56.743Z,10.96
2023-04-16T13:49:24.586Z,11.01
2023-04-16T13:51:52.393Z,10.98
2023-04-16T13:54:21.606Z,11.05
2023-04-16T13:56:51.157Z,11.09
2023-04-16T13:59:20.192Z,11.20
2023-04-16T14:01:47.963Z,11.08
2023-04-16T14:04:16.017Z,11.04
2023-04-16T14:06:43.849Z,10.96
2023-04-16T14:09:11.776Z,10.93
2023-04-16T14:11:41.164Z,11.00
2023-04-16T14:14:08.976Z,11.05
2023-04-16T14:16:37.014Z,11.16
2023-04-16T14:19:04.821Z,11.23
2023-04-16T14:21:32.615Z,11.33
2023-04-16T14:24:00.360Z,11.38
2023-04-16T14:26:28.224Z,11.34
2023-04-16T14:28:57.419Z,11.48
2023-04-16T14:31:25.708Z,11.60
2023-04-16T14:33:53.538Z,11.60
2023-04-16T14:36:21.315Z,11.72
2023-04-16T14:38:49.285Z,11.78
2023-04-16T14:41:17.081Z,11.87
2023-04-16T14:43:45.095Z,11.90
2023-04-16T14:46:17.883Z,12.03
2023-04-16T14:48:46.077Z,12.10
2023-04-16T14:51:13.880Z,12.15
2023-04-16T14:53:41.722Z,12.09
2023-04-16T14:56:09.818Z,11.99
2023-04-16T14:58:39.400Z,11.96
2023-04-16T15:01:07.420Z,11.88
2023-04-16T15:03:45.186Z,11.88
2023-04-16T15:06:13.819Z,11.79
2023-04-16T15:08:41.744Z,11.72
2023-04-16T15:11:09.623Z,11.65
2023-04-16T15:13:37.478Z,11.89
2023-04-16T15:16:10.114Z,11.74
2023-04-16T15:18:39.468Z,12.04
2023-04-16T15:21:07.632Z,12.02
2023-04-16T15:23:35.798Z,12.09
2023-04-16T15:26:07.171Z,12.11
2023-04-16T15:28:38.062Z,12.26
2023-04-16T15:31:06.241Z,12.45
2023-04-16T15:33:34.222Z,12.62
2023-04-16T15:36:03.901Z,12.57
2023-04-16T15:38:31.844Z,12.34
2023-04-16T15:41:00.815Z,12.32
2023-04-16T15:43:30.056Z,12.60
2023-04-16T15:45:57.972Z,12.97
2023-04-16T15:48:25.854Z,13.11
2023-04-16T15:50:53.742Z,13.06
2023-04-16T15:53:22.916Z,13.13
2023-04-16T15:55:52.834Z,12.99
2023-04-16T15:58:20.972Z,12.97
2023-04-16T16:00:50.195Z,13.10
2023-04-16T16:03:18.694Z,13.06
2023-04-16T16:05:48.186Z,12.86
2023-04-16T16:08:16.225Z,12.80
2023-04-16T16:10:45.351Z,12.56
2023-04-16T16:13:17.983Z,12.26
2023-04-16T16:15:45.846Z,12.02
2023-04-16T16:18:13.766Z,11.86
2023-04-16T16:20:41.575Z,11.88
2023-04-16T16:23:09.394Z,11.64
2023-04-16T16:25:37.288Z,11.66
2023-04-16T16:28:06.810Z,11.45
2023-04-16T16:30:34.766Z,11.39
2023-04-16T16:33:02.652Z,11.19
2023-04-16T16:35:30.452Z,10.99
2023-04-16T16:37:59.500Z,10.94
2023-04-16T16:40:27.325Z,10.91
2023-04-16T16:42:55.182Z,10.88
2023-04-16T16:45:26.067Z,10.76
2023-04-16T16:47:54.895Z,10.76
2023-04-16T16:50:22.788Z,10.77
2023-04-16T16:52:50.557Z,10.75
2023-04-16T16:55:19.016Z,10.81
2023-04-16T16:57:46.931Z,10.81
2023-04-16T17:00:16.906Z,10.76
2023-04-16T17:02:46.493Z,10.57
2023-04-16T17:05:14.509Z,10.60
2023-04-16T17:07:42.326Z,10.57
2023-04-16T17:10:13.145Z,10.62
2023-04-16T17:12:41.006Z,10.57
2023-04-16T17:15:09.686Z,10.49
2023-04-16T17:17:37.529Z,10.41
2023-04-16T17:20:09.707Z,10.41
2023-04-16T17:22:38.061Z,10.41
2023-04-16T17:25:07.608Z,10.37
2023-04-16T17:27:35.864Z,10.27
2023-04-16T17:30:05.396Z,10.33
2023-04-16T17:32:33.610Z,10.32
2023-04-16T17:35:04.145Z,10.20
2023-04-16T17:37:34.081Z,10.16
2023-04-16T17:40:02.050Z,10.12
2023-04-16T17:42:29.917Z,10.15
2023-04-16T17:44:57.683Z,10.10
2023-04-16T17:47:25.557Z,10.05
2023-04-16T17:49:54.470Z,10.00
2023-04-16T17:52:22.379Z,9.96
2023-04-16T17:54:53.192Z,9.93
2023-04-16T17:57:20.990Z,9.81
2023-04-16T17:59:48.822Z,9.80
2023-04-16T18:02:16.949Z,9.87
2023-04-16T18:04:45.106Z,10.02
2023-04-16T18:07:13.196Z,10.05
2023-04-16T18:09:41.056Z,9.97
2023-04-16T18:12:10.422Z,9.90
2023-04-16T18:14:38.829Z,9.80
2023-04-16T18:17:06.845Z,9.73
2023-04-16T18:19:35.571Z,9.60
2023-04-16T18:22:03.427Z,9.42
2023-04-16T18:24:33.240Z,9.39
2023-04-16T18:27:01.546Z,9.23
2023-04-16T18:29:33.711Z,9.16
2023-04-16T18:32:04.384Z,9.09
2023-04-16T18:34:32.852Z,9.05
2023-04-16T18:37:00.809Z,8.99
2023-04-16T18:39:28.588Z,8.97
2023-04-16T18:41:56.644Z,8.94
2023-04-16T18:44:24.514Z,8.90
2023-04-16T18:46:53.759Z,8.91
2023-04-16T18:49:21.577Z,8.89
2023-04-16T18:51:49.389Z,8.87
2023-04-16T18:54:17.181Z,8.86
2023-04-16T18:56:45.082Z,8.84
2023-04-16T18:59:13.125Z,8.77
2023-04-16T19:01:41.323Z,8.77
2023-04-16T19:04:10.764Z,8.73
2023-04-16T19:06:38.604Z,8.76
2023-04-16T19:09:06.776Z,8.75
2023-04-16T19:11:35.213Z,8.70
2023-04-16T19:14:05.318Z,8.66
2023-04-16T19:16:33.333Z,8.62
2023-04-16T19:19:01.349Z,8.56
2023-04-16T19:21:30.802Z,8.53
2023-04-16T19:23:59.513Z,8.47
2023-04-16T19:26:28.053Z,8.46
2023-04-16T19:28:55.838Z,8.46
2023-04-16T19:31:26.011Z,8.44
2023-04-16T19:33:53.789Z,8.42
2023-04-16T19:36:21.600Z,8.37
2023-04-16T19:38:50.780Z,8.33
2023-04-16T19:41:18.604Z,8.27
2023-04-16T19:43:46.385Z,8.25
2023-04-16T19:46:15.509Z,8.28
2023-04-16T19:48:57.464Z,8.25
2023-04-16T19:51:25.426Z,8.19
2023-04-16T19:53:54.789Z,8.16
2023-04-16T19:56:22.624Z,8.07
2023-04-16T19:58:50.379Z,8.05
2023-04-16T20:01:18.614Z,8.01
2023-04-16T20:03:46.752Z,7.93
2023-04-16T20:06:14.881Z,7.92
2023-04-16T20:08:44.637Z,7.92
2023-04-16T20:11:14.007Z,7.89
2023-04-16T20:13:43.265Z,7.88
2023-04-16T20:16:13.657Z,7.84
2023-04-16T20:18:42.628Z,7.82
2023-04-16T20:21:10.621Z,7.81
2023-04-16T20:23:38.969Z,7.79
2023-04-16T20:26:07.685Z,7.78
2023-04-16T20:28:37.155Z,7.75
2023-04-16T20:31:05.109Z,7.76
2023-04-16T20:33:33.300Z,7.76
2023-04-16T20:36:01.217Z,7.76
2023-04-16T20:38:32.446Z,7.80
2023-04-16T20:41:10.290Z,7.81
2023-04-16T20:43:40.821Z,7.82
2023-04-16T20:46:08.899Z,7.81
2023-04-16T20:48:39.999Z,7.84
2023-04-16T20:51:09.737Z,7.91
2023-04-16T20:53:38.413Z,7.91
2023-04-16T20:56:09.103Z,7.91
2023-04-16T20:58:37.025Z,7.89
2023-04-16T21:01:06.688Z,7.94
2023-04-16T21:03:35.212Z,7.90
2023-04-16T21:06:03.762Z,7.93
2023-04-16T21:08:31.615Z,7.94
2023-04-16T21:10:59.665Z,7.96
2023-04-16T21:13:27.549Z,7.96
2023-04-16T21:15:55.428Z,7.98
2023-04-16T21:18:24.685Z,7.99
2023-04-16T21:20:52.807Z,7.96
2023-04-16T21:23:20.753Z,7.98
2023-04-16T21:25:49.202Z,7.97
2023-04-16T21:28:17.195Z,7.97
2023-04-16T21:30:45.087Z,8.00
2023-04-16T21:33:16.250Z,8.00
2023-04-16T21:35:45.527Z,8.00
2023-04-16T21:38:13.521Z,8.00
2023-04-16T21:40:41.708Z,8.03
2023-04-16T21:43:09.523Z,8.04
2023-04-16T21:45:37.572Z,8.06
2023-04-16T21:48:05.684Z,8.06
2023-04-16T21:50:33.527Z,8.04
2023-04-16T21:53:06.749Z,8.03
2023-04-16T21:55:35.900Z,8.03
2023-04-16T21:58:03.829Z,8.00
2023-04-16T22:00:31.637Z,7.98
2023-04-16T22:03:00.367Z,7.82
2023-04-16T22:05:29.028Z,7.91
2023-04-16T22:07:57.049Z,7.91
2023-04-16T22:10:26.341Z,7.94
2023-04-16T22:12:55.101Z,7.89
2023-04-16T22:15:22.917Z,7.88
2023-04-16T22:17:51.797Z,7.84
2023-04-16T22:20:20.338Z,7.83
2023-04-16T22:22:48.216Z,7.83
2023-04-16T22:25:16.369Z,7.79
2023-04-16T22:27:46.072Z,7.79
2023-04-16T22:30:14.522Z,7.81
2023-04-16T22:32:42.369Z,7.80
2023-04-16T22:35:10.856Z,7.76
2023-04-16T22:37:38.882Z,7.78
2023-04-16T22:40:09.912Z,7.79
2023-04-16T22:42:37.800Z,7.76
2023-04-16T22:45:08.609Z,7.77
2023-04-16T22:47:36.500Z,7.78
2023-04-16T22:50:04.975Z,7.80
2023-04-16T22:52:32.944Z,7.77
2023-04-16T22:55:00.700Z,7.75
2023-04-16T22:57:28.878Z,7.77
2023-04-16T22:59:57.463Z,7.72
2023-04-16T23:02:27.096Z,7.79
2023-04-16T23:04:54.958Z,7.77
2023-04-16T23:07:23.196Z,7.76
2023-04-16T23:09:51.351Z,7.75
2023-04-16T23:12:19.230Z,7.74
2023-04-16T23:14:48.260Z,7.72
2023-04-16T23:17:16.309Z,7.71
2023-04-16T23:19:45.744Z,7.71
2023-04-16T23:22:13.581Z,7.69
2023-04-16T23:24:41.338Z,7.68
2023-04-16T23:27:09.118Z,7.69
2023-04-16T23:29:36.889Z,7.65
2023-04-16T23:32:04.890Z,7.60
2023-04-16T23:34:32.718Z,7.53
2023-04-16T23:37:01.879Z,7.61
2023-04-16T23:39:29.670Z,7.63
2023-04-16T23:41:58.208Z,7.60
2023-04-16T23:44:26.023Z,7.61
2023-04-16T23:46:53.836Z,7.60
2023-04-16T23:49:21.718Z,7.62
2023-04-16T23:51:49.496Z,7.63
2023-04-16T23:54:18.675Z,7.60
2023-04-16T23:56:46.556Z,7.60
2023-04-16T23:59:14.611Z,7.55
